Time;durP1;ratioP1;P1;durP2;ratioP2;P2;SDS_P1;SDS_P2;PMS_P1;PMS_P2;Temp;Humidity;BMP_temperature;BMP_pressure;BME280_temperature;BME280_humidity;BME280_pressure;Samples;Min_cycle;Max_cycle;Signal;HPM_P1;HPM_P2
2022/12/13 00:01:56;;;;;;;18.35;8.40;;;-2.90;99.90;;;;;;5074574;28;20079;-75
2022/12/13 00:04:23;;;;;;;18.17;8.10;;;-3.00;99.90;;;;;;5074660;28;20033;-75
2022/12/13 00:06:49;;;;;;;17.70;7.70;;;-3.60;99.90;;;;;;5074566;28;20181;-75
2022/12/13 00:09:17;;;;;;;21.05;9.65;;;-2.70;99.90;;;;;;5062429;28;20049;-75
2022/12/13 00:11:44;;;;;;;18.15;8.73;;;-3.20;99.90;;;;;;5054631;28;20036;-75
2022/12/13 00:14:12;;;;;;;21.65;9.32;;;-3.20;99.90;;;;;;5054421;28;20029;-75
2022/12/13 00:16:38;;;;;;;;;;;-2.40;99.90;;;;;;5054525;28;20449;-75
2022/12/13 00:19:04;;;;;;;23.05;9.98;;;-3.80;99.90;;;;;;5036328;28;19952;-75
2022/12/13 00:21:32;;;;;;;20.85;8.93;;;-3.90;99.90;;;;;;5053529;28;20056;-74
2022/12/13 00:23:59;;;;;;;17.27;8.37;;;-4.00;99.90;;;;;;5036227;28;20370;-75
2022/12/13 00:26:30;;;;;;;14.75;7.53;;;-4.10;99.90;;;;;;5056932;28;20252;-75
2022/12/13 00:28:59;;;;;;;19.08;8.68;;;-4.20;99.90;;;;;;5057818;28;20477;-75
2022/12/13 00:31:25;;;;;;;20.77;9.48;;;-4.20;99.90;;;;;;5040105;28;20031;-75
2022/12/13 00:33:51;;;;;;;20.00;9.52;;;-4.30;99.90;;;;;;5039774;28;20025;-74
2022/12/13 00:36:17;;;;;;;21.35;9.98;;;-4.40;99.90;;;;;;5057881;28;20025;-75
2022/12/13 00:38:44;;;;;;;22.35;9.07;;;-2.50;99.90;;;;;;5057915;28;20039;-75
2022/12/13 00:41:15;;;;;;;22.25;9.25;;;-3.60;99.90;;;;;;5057761;28;20052;-75
2022/12/13 00:43:41;;;;;;;20.58;8.93;;;-3.20;99.90;;;;;;5039988;28;20033;-75
2022/12/13 00:46:14;;;;;;;19.73;8.88;;;-3.70;99.90;;;;;;5039830;28;20025;-75
2022/12/13 00:48:40;;;;;;;17.98;8.30;;;-3.80;99.90;;;;;;5039838;28;20078;-75
2022/12/13 00:51:07;;;;;;;23.92;8.95;;;-3.30;99.90;;;;;;5039230;28;20029;-75
2022/12/13 00:53:33;;;;;;;21.92;8.77;;;-5.00;99.90;;;;;;5039840;28;20033;-75
2022/12/13 00:55:59;;;;;;;23.08;9.05;;;-4.10;99.90;;;;;;5040119;28;20044;-75
2022/12/13 00:58:25;;;;;;;18.88;9.00;;;-3.70;99.90;;;;;;5057786;28;20075;-75
2022/12/13 01:00:50;;;;;;;19.25;9.20;;;-4.70;99.90;;;;;;5039423;28;20033;-75
2022/12/13 01:03:19;;;;;;;20.15;8.55;;;-3.20;99.90;;;;;;5057829;28;20029;-75
2022/12/13 01:05:47;;;;;;;;;;;-5.40;99.90;;;;;;5039811;28;20033;-75
2022/12/13 01:08:14;;;;;;;16.48;7.60;;;-5.40;99.90;;;;;;5057094;28;19924;-75
2022/12/13 01:10:46;;;;;;;17.52;8.52;;;-4.60;99.90;;;;;;5057180;28;20432;-75
2022/12/13 01:13:13;;;;;;;18.33;7.97;;;-5.20;99.90;;;;;;5056822;28;20028;-74
2022/12/13 01:15:42;;;;;;;19.75;8.57;;;-5.70;99.90;;;;;;5039253;28;20028;-75
2022/12/13 01:18:09;;;;;;;18.45;8.57;;;-5.70;99.90;;;;;;5038844;28;20029;-74
2022/12/13 01:20:35;;;;;;;17.13;8.23;;;-5.80;99.90;;;;;;5039195;28;20457;-75
2022/12/13 01:23:00;;;;;;;18.73;7.53;;;-3.70;99.90;;;;;;5056820;28;20064;-75
2022/12/13 01:25:26;;;;;;;15.90;7.93;;;-4.30;99.90;;;;;;5057060;28;20048;-75
2022/12/13 01:27:52;;;;;;;23.45;8.93;;;-4.60;99.90;;;;;;5039132;28;20071;-74
2022/12/13 01:30:17;;;;;;;23.67;9.23;;;-5.90;99.90;;;;;;5056677;28;20060;-75
2022/12/13 01:32:43;;;;;;;24.55;9.25;;;-6.00;99.90;;;;;;5056650;28;20029;-75
2022/12/13 01:35:09;;;;;;;20.75;8.85;;;-6.00;99.90;;;;;;5056762;28;20025;-74
2022/12/13 01:37:35;;;;;;;18.25;9.25;;;-6.00;99.90;;;;;;5055865;28;20017;-74
2022/12/13 01:40:02;;;;;;;22.58;9.50;;;-5.70;99.90;;;;;;5056672;28;20025;-75
2022/12/13 01:42:28;;;;;;;17.98;9.00;;;-6.00;99.90;;;;;;5056944;28;20473;-74
2022/12/13 01:44:54;;;;;;;23.25;9.73;;;-6.00;99.90;;;;;;5056586;28;20016;-75
2022/12/13 01:47:55;;;;;;;19.27;9.07;;;-6.00;99.90;;;;;;5038955;28;20564;-74
2022/12/13 01:50:34;;;;;;;16.35;7.95;;;-6.10;99.90;;;;;;5051398;28;20060;-75
2022/12/13 01:53:00;;;;;;;20.05;8.52;;;-4.20;99.90;;;;;;5056574;28;20021;-75
2022/12/13 01:55:30;;;;;;;18.65;8.57;;;-6.20;99.90;;;;;;5039813;28;20465;-75
2022/12/13 01:57:59;;;;;;;22.08;8.90;;;-6.30;99.90;;;;;;5040270;28;20025;-75
2022/12/13 02:00:25;;;;;;;23.60;8.93;;;-6.30;99.90;;;;;;5039714;28;20033;-74
2022/12/13 02:02:56;;;;;;;22.95;9.70;;;-4.30;99.90;;;;;;5039267;28;20037;-74
2022/12/13 02:05:33;;;;;;;20.17;8.82;;;-6.50;99.90;;;;;;5038732;28;20029;-75
2022/12/13 02:08:01;;;;;;;17.55;8.10;;;-6.50;99.90;;;;;;5038773;28;20056;-75
2022/12/13 02:10:27;;;;;;;19.90;8.73;;;-6.50;99.90;;;;;;5056455;28;20036;-74
2022/12/13 02:12:53;;;;;;;22.88;8.57;;;-4.30;99.90;;;;;;5038470;28;20025;-74
2022/12/13 02:15:19;;;;;;;15.32;7.97;;;-6.50;99.90;;;;;;5038465;28;20477;-74
2022/12/13 02:17:54;;;;;;;20.95;8.70;;;-6.50;99.90;;;;;;5056400;28;20057;-74
2022/12/13 02:20:43;;;;;;;21.42;8.07;;;-6.60;99.90;;;;;;5038403;28;20495;-75
2022/12/13 02:23:17;;;;;;;21.33;9.10;;;-6.60;99.90;;;;;;5055434;28;20079;-74
2022/12/13 02:25:49;;;;;;;20.75;8.93;;;-6.60;99.90;;;;;;5038851;28;20079;-74
2022/12/13 02:28:39;;;;;;;20.05;8.45;;;-6.60;99.90;;;;;;5038202;28;20025;-75
2022/12/13 02:31:16;;;;;;;21.60;8.65;;;-6.50;99.90;;;;;;5038012;28;20053;-75
2022/12/13 02:34:05;;;;;;;25.65;9.35;;;-6.50;99.90;;;;;;5038187;28;20035;-74
2022/12/13 02:36:40;;;;;;;21.02;8.60;;;-6.50;99.90;;;;;;5037986;28;20029;-74
2022/12/13 02:39:15;;;;;;;21.00;8.00;;;-6.50;99.90;;;;;;5055471;28;20078;-75
2022/12/13 02:41:49;;;;;;;20.17;9.43;;;-6.60;99.90;;;;;;5037746;28;20122;-74
2022/12/13 02:44:33;;;;;;;21.88;8.40;;;-6.60;99.90;;;;;;5055327;28;20028;-75
2022/12/13 02:47:04;;;;;;;23.63;9.35;;;-5.20;99.90;;;;;;5040671;28;20110;-75
2022/12/13 02:49:35;;;;;;;19.15;8.00;;;-6.70;99.90;;;;;;5040439;28;20120;-75
2022/12/13 02:52:03;;;;;;;20.52;8.85;;;-6.70;99.90;;;;;;5058516;28;20067;-75
2022/12/13 02:54:29;;;;;;;24.40;8.82;;;-6.70;99.90;;;;;;5038675;28;20025;-75
2022/12/13 02:56:56;;;;;;;18.70;8.27;;;-6.80;99.90;;;;;;5055935;28;20430;-75
2022/12/13 02:59:28;;;;;;;16.95;8.20;;;-6.90;99.90;;;;;;5055067;28;20040;-74
2022/12/13 03:02:03;;;;;;;19.17;8.60;;;-6.90;99.90;;;;;;5037395;28;20031;-74
2022/12/13 03:08:00;;;;;;;20.40;8.15;;;-7.00;99.90;;;;;;5055342;28;20083;-74
2022/12/13 03:10:36;;;;;;;20.00;9.02;;;-6.90;99.90;;;;;;5075427;28;20036;-74
2022/12/13 03:16:09;;;;;;;22.73;9.88;;;-6.90;99.90;;;;;;5075298;28;20043;-74
2022/12/13 03:18:36;;;;;;;24.33;9.68;;;-6.90;99.90;;;;;;5056714;28;20020;-74
2022/12/13 03:21:05;;;;;;;18.38;9.52;;;-4.80;99.90;;;;;;5075165;28;20036;-75
2022/12/13 03:23:31;;;;;;;;;;;-6.90;99.90;;;;;;5057397;28;20073;-74
2022/12/13 03:26:15;;;;;;;23.08;10.38;;;-4.50;99.90;;;;;;5074887;28;20321;-74
2022/12/13 03:28:41;;;;;;;26.73;9.20;;;-6.90;99.90;;;;;;5074689;28;20024;-74
2022/12/13 03:31:07;;;;;;;27.35;10.73;;;-6.90;99.90;;;;;;5074842;28;20146;-74
2022/12/13 03:33:33;;;;;;;23.83;10.07;;;-6.80;99.90;;;;;;5056932;28;20020;-74
2022/12/13 03:36:00;;;;;;;23.70;9.60;;;-6.80;99.90;;;;;;5074664;28;20024;-74
2022/12/13 03:38:26;;;;;;;20.45;9.05;;;-6.80;99.90;;;;;;5056943;28;20383;-74
2022/12/13 03:41:11;;;;;;;24.05;9.70;;;-5.80;99.90;;;;;;5074550;28;20104;-74
2022/12/13 03:43:39;;;;;;;22.90;8.93;;;-6.30;99.90;;;;;;5074486;28;20027;-74
2022/12/13 03:46:05;;;;;;;25.42;9.90;;;-7.00;99.90;;;;;;5074666;28;20021;-75
2022/12/13 03:48:31;;;;;;;27.75;9.00;;;-7.10;99.90;;;;;;5056687;28;20422;-75
2022/12/13 03:50:56;;;;;;;23.70;9.68;;;-7.20;99.90;;;;;;5056353;28;20036;-74
2022/12/13 03:53:23;;;;;;;21.92;9.02;;;-7.20;99.90;;;;;;5056651;28;20361;-75
2022/12/13 03:55:49;;;;;;;28.80;10.50;;;-7.20;99.90;;;;;;5074356;28;20028;-74
2022/12/13 03:58:14;;;;;;;33.53;9.63;;;-7.20;99.90;;;;;;5056429;28;20025;-75
2022/12/13 04:00:40;;;;;;;19.40;8.43;;;-7.30;99.90;;;;;;5056376;28;20035;-75
2022/12/13 04:03:06;;;;;;;26.33;9.75;;;-7.30;99.90;;;;;;5078834;28;20071;-75
2022/12/13 04:05:32;;;;;;;25.67;9.13;;;-7.40;99.90;;;;;;5078839;28;20032;-75
2022/12/13 04:07:57;;;;;;;17.67;8.18;;;-7.40;99.90;;;;;;5075092;28;20084;-74
2022/12/13 04:10:24;;;;;;;22.77;9.20;;;-7.40;99.90;;;;;;5054902;28;20516;-75
2022/12/13 04:15:35;;;;;;;27.33;10.57;;;-7.40;99.90;;;;;;5054842;28;20044;-74
2022/12/13 04:18:01;;;;;;;19.80;8.48;;;-7.30;99.90;;;;;;5054376;28;20424;-74
2022/12/13 04:20:26;;;;;;;26.50;9.20;;;-7.30;99.90;;;;;;5054312;28;20043;-74
2022/12/13 04:22:52;;;;;;;25.52;9.32;;;-7.40;99.90;;;;;;5054256;28;20021;-74
2022/12/13 04:25:18;;;;;;;22.20;8.82;;;-7.40;99.90;;;;;;5054045;28;20075;-74
2022/12/13 04:27:44;;;;;;;20.70;10.15;;;-7.50;99.90;;;;;;5054531;28;20094;-74
2022/12/13 04:30:10;;;;;;;20.10;9.77;;;-7.50;99.90;;;;;;5036616;28;20040;-74
2022/12/13 04:32:36;;;;;;;21.05;9.70;;;-7.50;99.90;;;;;;5036312;28;20548;-74
2022/12/13 04:35:02;;;;;;;22.83;10.27;;;-7.60;99.90;;;;;;5035847;28;20056;-74
2022/12/13 04:37:28;;;;;;;23.00;9.00;;;-7.60;99.90;;;;;;5036098;28;20053;-74
2022/12/13 04:39:54;;;;;;;24.73;10.50;;;-7.70;99.90;;;;;;5036107;28;20466;-74
2022/12/13 04:42:19;;;;;;;21.85;9.82;;;-7.70;99.90;;;;;;5053912;28;20043;-74
2022/12/13 04:44:45;;;;;;;21.73;9.65;;;-7.80;99.90;;;;;;5035745;28;20102;-74
2022/12/13 04:47:11;;;;;;;25.63;10.82;;;-5.80;99.90;;;;;;5035956;28;20171;-75
2022/12/13 04:49:36;;;;;;;25.27;9.70;;;-7.90;99.90;;;;;;5035744;28;20033;-75
2022/12/13 04:52:03;;;;;;;18.58;9.10;;;-7.90;99.90;;;;;;5035741;28;20025;-75
2022/12/13 04:54:31;;;;;;;25.13;10.30;;;-7.90;99.90;;;;;;5035364;28;20037;-74
2022/12/13 04:56:57;;;;;;;23.77;9.88;;;-6.30;99.90;;;;;;5053627;28;20083;-75
2022/12/13 04:59:22;;;;;;;21.27;10.18;;;-6.90;99.90;;;;;;5053937;28;20041;-74
2022/12/13 05:01:48;;;;;;;23.05;10.00;;;-8.00;99.90;;;;;;5055490;28;20428;-74
2022/12/13 05:04:14;;;;;;;26.15;10.68;;;-8.00;99.90;;;;;;5037947;28;20457;-74
2022/12/13 05:06:39;;;;;;;24.77;10.05;;;-8.00;99.90;;;;;;5038422;28;20033;-75
2022/12/13 05:09:06;;;;;;;28.58;12.00;;;-8.00;99.90;;;;;;5053482;28;20059;-74
2022/12/13 05:11:32;;;;;;;32.53;13.80;;;-8.00;99.90;;;;;;5072876;28;20035;-74
2022/12/13 05:13:58;;;;;;;33.78;13.27;;;-8.10;99.90;;;;;;5077071;28;20025;-70
2022/12/13 05:16:24;;;;;;;30.02;13.68;;;-8.10;99.90;;;;;;5077548;28;20031;-74
2022/12/13 05:18:50;;;;;;;33.28;13.73;;;-6.20;99.90;;;;;;5076891;28;20025;-74
2022/12/13 05:21:15;;;;;;;27.55;10.57;;;-8.10;99.90;;;;;;5075555;28;20024;-75
2022/12/13 05:23:41;;;;;;;25.13;9.95;;;-5.90;99.90;;;;;;5077359;28;20044;-72
2022/12/13 05:26:07;;;;;;;28.50;9.80;;;-8.10;99.90;;;;;;5077097;28;20041;-75
2022/12/13 05:28:33;;;;;;;24.75;11.05;;;-8.20;99.90;;;;;;5075952;28;20029;-75
2022/12/13 05:31:06;;;;;;;29.70;12.07;;;-8.20;99.90;;;;;;5076965;28;20050;-75
2022/12/13 05:33:32;;;;;;;27.40;11.48;;;-8.20;99.90;;;;;;5076530;28;20060;-74
2022/12/13 05:35:58;;;;;;;26.58;11.32;;;-8.20;99.90;;;;;;5075569;28;20030;-74
2022/12/13 05:38:23;;;;;;;22.35;10.63;;;-7.90;99.90;;;;;;5076998;28;20086;-74
2022/12/13 05:40:49;;;;;;;28.42;11.48;;;-8.30;99.90;;;;;;5076787;28;20043;-74
2022/12/13 05:43:15;;;;;;;25.52;10.77;;;-8.30;99.90;;;;;;5076780;28;20103;-73
2022/12/13 05:45:41;;;;;;;26.08;10.90;;;-6.90;99.90;;;;;;5076476;28;20032;-74
2022/12/13 05:48:07;;;;;;;29.20;11.32;;;-8.30;99.90;;;;;;5075344;28;20520;-74
2022/12/13 05:50:33;;;;;;;35.60;12.18;;;-8.30;99.90;;;;;;5075919;28;20081;-74
2022/12/13 05:52:59;;;;;;;24.95;11.55;;;-8.30;99.90;;;;;;5075052;28;20029;-74
2022/12/13 05:55:25;;;;;;;29.25;11.20;;;-8.30;99.90;;;;;;5074872;28;20020;-74
2022/12/13 05:57:50;;;;;;;25.27;9.93;;;-8.40;99.90;;;;;;5075050;28;20029;-74
2022/12/13 06:00:17;;;;;;;22.25;10.95;;;-8.40;99.90;;;;;;5076250;28;20036;-75
2022/12/13 06:02:43;;;;;;;27.10;10.98;;;-8.40;99.90;;;;;;5075937;28;20111;-75
2022/12/13 06:05:09;;;;;;;27.38;11.13;;;-8.40;99.90;;;;;;5076117;28;20032;-74
2022/12/13 06:07:36;;;;;;;27.15;12.48;;;-8.40;99.90;;;;;;5076594;28;20036;-75
2022/12/13 06:10:04;;;;;;;25.98;11.05;;;-8.40;99.90;;;;;;5057676;28;20134;-74
2022/12/13 06:12:30;;;;;;;25.45;10.05;;;-8.40;99.90;;;;;;5056262;28;20033;-74
2022/12/13 06:14:56;;;;;;;26.25;10.82;;;-8.40;99.90;;;;;;5056384;28;20032;-75
2022/12/13 06:17:23;;;;;;;25.75;11.40;;;-8.40;99.90;;;;;;5038090;28;20025;-74
2022/12/13 06:19:52;;;;;;;26.95;11.63;;;-8.50;99.90;;;;;;5037147;28;20025;-74
2022/12/13 06:22:17;;;;;;;32.65;10.70;;;-8.40;99.90;;;;;;5055175;28;20031;-75
2022/12/13 06:24:43;;;;;;;25.63;10.95;;;-8.50;99.90;;;;;;5055814;28;20416;-75
2022/12/13 06:27:09;;;;;;;30.92;10.27;;;-8.50;99.90;;;;;;5055786;28;20029;-74
2022/12/13 06:29:34;;;;;;;20.90;9.88;;;-8.50;99.90;;;;;;5055796;28;20029;-74
2022/12/13 06:32:02;;;;;;;33.22;11.35;;;-8.50;99.90;;;;;;5055290;28;20385;-74
2022/12/13 06:34:32;;;;;;;29.08;11.40;;;-8.60;99.90;;;;;;5055670;28;20029;-75
2022/12/13 06:36:58;;;;;;;27.73;10.93;;;-8.60;99.90;;;;;;5038042;28;20033;-75
2022/12/13 06:39:23;;;;;;;25.67;10.45;;;-8.60;99.90;;;;;;5056179;28;20381;-75
2022/12/13 06:41:49;;;;;;;26.52;11.02;;;-8.60;99.90;;;;;;5055494;28;20376;-74
2022/12/13 06:44:15;;;;;;;34.80;12.10;;;-8.60;99.90;;;;;;5037735;28;20036;-74
2022/12/13 06:46:41;;;;;;;35.67;12.75;;;-8.60;99.90;;;;;;5055022;28;20036;-74
2022/12/13 06:49:07;;;;;;;45.53;15.85;;;-8.60;99.90;;;;;;5055460;28;20025;-74
2022/12/13 06:51:33;;;;;;;43.55;16.42;;;-8.50;99.90;;;;;;5037395;28;20087;-75
2022/12/13 06:54:01;;;;;;;39.53;14.20;;;-8.60;99.90;;;;;;5054886;28;20431;-75
2022/12/13 06:56:27;;;;;;;37.60;14.27;;;-8.60;99.90;;;;;;5055230;28;20024;-75
2022/12/13 06:58:52;;;;;;;33.33;14.55;;;-8.50;99.90;;;;;;5054865;28;20029;-74
2022/12/13 07:01:18;;;;;;;29.30;12.45;;;-8.50;99.90;;;;;;5037204;28;20031;-74
2022/12/13 07:03:44;;;;;;;31.95;12.50;;;-8.50;99.90;;;;;;5055235;28;20035;-74
2022/12/13 07:06:19;;;;;;;37.20;13.80;;;-8.50;99.90;;;;;;5037093;28;20473;-74
2022/12/13 07:08:49;;;;;;;34.08;13.18;;;-8.50;99.90;;;;;;5047971;28;20485;-75
2022/12/13 07:11:22;;;;;;;32.70;11.98;;;-8.50;99.90;;;;;;5074328;28;20032;-75
2022/12/13 07:13:47;;;;;;;31.27;13.35;;;-8.50;99.90;;;;;;5075109;28;20023;-74
2022/12/13 07:16:14;;;;;;;32.35;13.00;;;-8.40;99.90;;;;;;5074752;28;20020;-75
2022/12/13 07:18:39;;;;;;;30.70;12.73;;;-8.40;99.90;;;;;;5073601;28;20021;-75
2022/12/13 07:21:10;;;;;;;35.30;13.68;;;-8.40;99.90;;;;;;5074697;28;20036;-75
2022/12/13 07:23:37;;;;;;;34.00;13.93;;;-8.30;99.90;;;;;;5073549;28;20051;-75
2022/12/13 07:26:04;;;;;;;31.45;13.52;;;-8.20;99.90;;;;;;5074625;28;20103;-75
2022/12/13 07:28:33;;;;;;;37.05;13.18;;;-8.20;99.90;;;;;;5074397;28;20365;-75
2022/12/13 07:31:01;;;;;;;35.50;14.65;;;-8.20;99.90;;;;;;5073172;28;20036;-75
2022/12/13 07:33:31;;;;;;;34.25;12.98;;;-8.20;99.90;;;;;;5074509;28;20021;-74
2022/12/13 07:36:05;;;;;;;35.70;13.70;;;-8.10;99.90;;;;;;5074280;28;20086;-75
2022/12/13 07:38:35;;;;;;;32.50;13.40;;;-8.10;99.90;;;;;;5073571;28;20060;-75
2022/12/13 07:41:01;;;;;;;32.95;13.90;;;-8.10;99.90;;;;;;5073101;28;20025;-75
2022/12/13 07:43:28;;;;;;;29.85;12.73;;;-8.10;99.90;;;;;;5073188;28;20025;-75
2022/12/13 07:45:58;;;;;;;33.22;14.02;;;-8.20;99.90;;;;;;5074161;28;20101;-75
2022/12/13 07:48:24;;;;;;;31.38;14.43;;;-8.20;99.90;;;;;;5074141;28;20024;-75
2022/12/13 07:50:49;;;;;;;37.22;15.50;;;-8.10;99.90;;;;;;5072955;28;20047;-75
2022/12/13 07:53:15;;;;;;;34.85;14.13;;;-8.10;99.90;;;;;;5074214;28;20069;-75
2022/12/13 07:55:41;;;;;;;31.05;13.48;;;-8.10;99.90;;;;;;5074009;28;20040;-75
2022/12/13 07:58:09;;;;;;;40.28;14.52;;;-8.10;99.90;;;;;;5074560;28;20452;-75
2022/12/13 08:00:36;;;;;;;32.65;13.73;;;-6.40;99.90;;;;;;5076372;28;20029;-75
2022/12/13 08:03:02;;;;;;;32.65;13.93;;;-7.90;99.90;;;;;;5074536;28;20028;-75
2022/12/13 08:05:28;;;;;;;28.80;14.13;;;-7.90;99.90;;;;;;5075221;28;20027;-75
2022/12/13 08:07:53;;;;;;;25.70;12.85;;;-7.90;99.90;;;;;;5074843;28;20025;-74
2022/12/13 08:10:19;;;;;;;32.58;12.88;;;-7.80;99.90;;;;;;5054179;28;20039;-75
2022/12/13 08:12:45;;;;;;;29.77;12.02;;;-7.70;99.90;;;;;;5054119;28;20096;-75
2022/12/13 08:15:11;;;;;;;26.42;12.25;;;-7.60;99.90;;;;;;5054389;28;20029;-75
2022/12/13 08:17:37;;;;;;;27.17;12.10;;;-7.50;99.90;;;;;;5054322;28;20033;-75
2022/12/13 08:20:04;;;;;;;29.13;12.52;;;-7.30;99.90;;;;;;5036348;28;20495;-75
2022/12/13 08:22:29;;;;;;;28.30;11.38;;;-7.10;99.90;;;;;;5036682;28;20021;-75
2022/12/13 08:24:55;;;;;;;53.13;17.40;;;-6.80;99.90;;;;;;5036596;28;20399;-75
2022/12/13 08:27:20;;;;;;;32.90;12.20;;;-6.30;99.90;;;;;;5036530;28;20523;-75
2022/12/13 08:29:46;;;;;;;33.92;13.40;;;-3.80;99.90;;;;;;5054599;28;20028;-75
2022/12/13 08:32:12;;;;;;;23.98;11.65;;;-4.90;99.90;;;;;;5036464;28;20456;-75
2022/12/13 08:34:38;;;;;;;21.60;11.15;;;-3.50;99.90;;;;;;5036251;28;20029;-75
2022/12/13 08:37:04;;;;;;;20.38;10.38;;;-3.30;99.90;;;;;;5054729;28;20029;-75
2022/12/13 08:39:35;;;;;;;20.67;10.25;;;-2.60;99.90;;;;;;5055601;28;20025;-75
2022/12/13 08:42:06;;;;;;;21.38;9.68;;;-1.90;99.90;;;;;;5042066;28;20029;-75
2022/12/13 08:44:32;;;;;;;17.17;9.25;;;-1.40;99.90;;;;;;5059278;28;20073;-74
2022/12/13 08:46:57;;;;;;;17.48;8.25;;;-0.80;99.90;;;;;;5060133;28;20036;-75
2022/12/13 08:49:23;;;;;;;17.50;7.97;;;-0.20;99.90;;;;;;5047099;28;20029;-76
2022/12/13 08:51:49;;;;;;;15.45;7.18;;;-0.30;99.90;;;;;;5048458;28;20025;-76
2022/12/13 08:54:14;;;;;;;19.02;8.65;;;0.00;99.90;;;;;;5067257;28;20076;-75
2022/12/13 08:56:40;;;;;;;13.65;7.30;;;0.10;99.90;;;;;;5048940;28;20029;-75
2022/12/13 08:59:05;;;;;;;13.25;7.07;;;0.50;99.90;;;;;;5065899;28;20032;-75
2022/12/13 09:01:32;;;;;;;13.20;7.40;;;1.00;99.90;;;;;;5065086;28;20477;-74
2022/12/13 09:03:57;;;;;;;10.88;6.22;;;0.90;99.90;;;;;;5048909;28;20025;-75
2022/12/13 09:06:23;;;;;;;12.23;7.15;;;1.10;99.90;;;;;;5048759;28;20025;-74
2022/12/13 09:08:52;;;;;;;14.30;6.82;;;1.60;99.90;;;;;;5065285;28;20420;-74
2022/12/13 09:11:18;;;;;;;10.18;5.72;;;1.90;99.00;;;;;;5064686;28;20546;-75
2022/12/13 09:13:44;;;;;;;12.27;6.43;;;2.20;98.10;;;;;;5046101;28;20025;-74
2022/12/13 09:16:22;;;;;;;12.38;6.40;;;2.20;97.10;;;;;;5046921;28;20025;-74
2022/12/13 09:18:49;;;;;;;9.27;5.43;;;2.60;96.50;;;;;;5046525;28;20032;-74
2022/12/13 09:21:16;;;;;;;13.38;7.82;;;2.80;94.80;;;;;;5045044;28;20053;-75
2022/12/13 09:23:42;;;;;;;20.10;10.88;;;2.80;94.00;;;;;;5045515;28;20029;-74
2022/12/13 09:26:10;;;;;;;17.75;9.38;;;2.90;93.00;;;;;;5063818;28;20480;-74
2022/12/13 09:28:36;;;;;;;10.70;7.37;;;3.10;92.50;;;;;;5063319;28;20045;-74
2022/12/13 09:31:07;;;;;;;12.55;7.75;;;3.20;92.60;;;;;;5062586;28;20033;-74
2022/12/13 09:33:33;;;;;;;14.05;8.10;;;3.70;90.60;;;;;;5042741;28;20063;-74
2022/12/13 09:36:02;;;;;;;11.98;7.22;;;4.20;88.00;;;;;;5044716;28;20021;-74
2022/12/13 09:38:27;;;;;;;;;;;4.40;85.00;;;;;;5063149;28;20021;-74
2022/12/13 09:40:55;;;;;;;13.52;8.80;;;4.60;84.40;;;;;;5062062;28;19905;-74
2022/12/13 09:43:25;;;;;;;16.45;9.23;;;4.80;81.90;;;;;;5044793;28;20152;-74
2022/12/13 09:45:51;;;;;;;13.23;8.30;;;5.00;80.40;;;;;;5044982;28;20037;-74
2022/12/13 09:48:19;;;;;;;17.25;9.82;;;5.00;79.70;;;;;;5061557;28;20021;-75
2022/12/13 09:50:46;;;;;;;15.10;8.43;;;4.90;79.90;;;;;;5061703;28;20033;-75
2022/12/13 09:53:15;;;;;;;13.55;8.25;;;4.60;81.30;;;;;;5042089;28;20025;-75
2022/12/13 09:55:45;;;;;;;19.05;9.35;;;4.20;82.30;;;;;;5060941;28;20477;-75
2022/12/13 09:58:19;;;;;;;15.45;9.23;;;4.00;84.90;;;;;;5061895;28;20029;-75
2022/12/13 10:00:47;;;;;;;13.65;8.60;;;3.70;84.80;;;;;;5044340;28;20033;-75
2022/12/13 10:03:15;;;;;;;20.48;9.70;;;3.30;86.70;;;;;;5062030;28;20036;-75
2022/12/13 10:05:44;;;;;;;12.43;7.78;;;3.10;89.10;;;;;;5044342;28;20040;-74
2022/12/13 10:08:15;;;;;;;19.55;9.35;;;2.80;89.00;;;;;;5062409;28;20067;-74
2022/12/13 10:10:42;;;;;;;18.45;9.15;;;2.70;91.10;;;;;;5045599;28;20386;-75
2022/12/13 10:13:19;;;;;;;18.48;9.95;;;2.80;91.40;;;;;;5049307;28;20459;-75
2022/12/13 10:15:57;;;;;;;16.52;8.90;;;2.70;92.00;;;;;;5064097;28;20051;-75
2022/12/13 10:18:33;;;;;;;22.42;10.23;;;2.90;91.80;;;;;;5062988;28;20025;-75
2022/12/13 10:21:02;;;;;;;19.05;8.00;;;3.20;91.40;;;;;;5045694;28;20061;-75
2022/12/13 10:23:28;;;;;;;;;;;3.30;89.00;;;;;;5042203;28;20056;-75
2022/12/13 10:25:54;;;;;;;10.70;6.25;;;3.50;86.90;;;;;;5041414;28;19912;-75
2022/12/13 10:28:28;;;;;;;8.73;5.38;;;3.80;85.80;;;;;;5059587;28;20052;-75
2022/12/13 10:30:55;;;;;;;20.60;5.95;;;3.60;83.50;;;;;;5058317;28;20510;-76
2022/12/13 10:33:34;;;;;;;10.13;5.55;;;3.50;86.40;;;;;;5058388;28;20523;-76
2022/12/13 10:36:15;;;;;;;9.40;5.10;;;3.60;87.20;;;;;;5039273;28;20029;-75
2022/12/13 10:38:44;;;;;;;5.82;4.10;;;3.40;80.60;;;;;;5056505;28;20120;-76
2022/12/13 10:41:25;;;;;;;6.22;3.67;;;2.60;81.30;;;;;;5056793;28;20029;-76
2022/12/13 10:44:20;;;;;;;8.50;4.38;;;2.70;82.50;;;;;;5038688;28;20400;-76
2022/12/13 10:47:19;;;;;;;9.27;3.92;;;3.10;83.50;;;;;;5038928;28;20492;-75
2022/12/13 10:49:53;;;;;;;9.85;4.22;;;3.70;78.50;;;;;;5041680;28;20433;-75
2022/12/13 10:52:40;;;;;;;10.30;4.00;;;4.00;75.60;;;;;;5056960;28;20032;-76
2022/12/13 10:55:32;;;;;;;10.38;4.03;;;4.70;77.30;;;;;;5038425;28;20094;-75
2022/12/13 10:58:06;;;;;;;6.18;3.97;;;5.40;72.50;;;;;;5055897;28;20056;-75
2022/12/13 11:00:46;;;;;;;8.43;3.63;;;4.80;71.50;;;;;;5055852;28;20036;-75
2022/12/13 11:03:27;;;;;;;6.75;4.10;;;5.20;70.50;;;;;;5058691;28;20060;-74
2022/12/13 11:06:03;;;;;;;10.68;4.93;;;5.70;69.60;;;;;;5060286;28;20029;-75
2022/12/13 11:08:29;;;;;;;9.23;5.38;;;5.80;67.90;;;;;;5047569;28;20040;-73
2022/12/13 11:11:00;;;;;;;8.30;4.60;;;5.80;68.50;;;;;;5078359;28;20028;-74
2022/12/13 11:13:54;;;;;;;10.27;4.40;;;6.20;65.40;;;;;;5078026;28;20021;-75
2022/12/13 11:16:26;;;;;;;8.90;4.95;;;7.30;66.90;;;;;;5078224;28;20091;-74
2022/12/13 11:18:55;;;;;;;9.02;4.68;;;7.80;61.30;;;;;;5077210;28;20032;-75
2022/12/13 11:21:33;;;;;;;8.30;4.80;;;7.30;60.50;;;;;;5074448;28;20031;-74
2022/12/13 11:24:06;;;;;;;13.68;4.85;;;6.30;61.70;;;;;;5078876;28;20025;-74
2022/12/13 11:26:35;;;;;;;8.00;4.40;;;6.50;63.60;;;;;;5078479;28;20388;-74
2022/12/13 11:29:01;;;;;;;;;;;5.90;63.80;;;;;;5078029;28;20032;-75
2022/12/13 11:31:42;;;;;;;10.52;4.43;;;6.00;63.80;;;;;;5078643;28;19916;-75
2022/12/13 11:34:10;;;;;;;7.50;4.15;;;6.20;63.50;;;;;;5077400;28;20055;-76
2022/12/13 11:36:57;;;;;;;7.75;4.72;;;7.00;64.70;;;;;;5076704;28;20032;-76
2022/12/13 11:39:35;;;;;;;7.28;4.78;;;6.40;61.10;;;;;;5076794;28;20063;-76
2022/12/13 11:42:21;;;;;;;8.98;4.28;;;6.60;61.70;;;;;;5078299;28;20350;-76
2022/12/13 11:45:13;;;;;;;7.90;4.82;;;6.50;62.60;;;;;;5077845;28;20384;-77
2022/12/13 11:47:49;;;;;;;6.60;4.00;;;7.00;61.50;;;;;;5077330;28;20081;-78
2022/12/13 11:50:27;;;;;;;8.73;4.20;;;6.80;61.40;;;;;;5074985;28;20036;-78
2022/12/13 11:52:58;;;;;;;10.00;4.57;;;6.90;61.20;;;;;;5076238;28;20081;-77
2022/12/13 11:55:33;;;;;;;8.20;4.70;;;7.30;61.90;;;;;;5077599;28;20052;-77
2022/12/13 11:58:21;;;;;;;8.70;4.53;;;7.50;59.60;;;;;;5076245;28;20028;-77
2022/12/13 12:01:11;;;;;;;11.35;4.80;;;7.20;60.60;;;;;;5075891;28;20063;-77
2022/12/13 12:03:59;;;;;;;9.90;4.82;;;7.20;61.00;;;;;;5075170;28;20032;-77
2022/12/13 12:06:31;;;;;;;7.63;4.82;;;7.60;60.90;;;;;;5079293;28;20084;-78
2022/12/13 12:09:04;;;;;;;6.05;4.20;;;7.70;58.60;;;;;;5068464;28;20052;-78
2022/12/13 12:12:00;;;;;;;5.63;4.55;;;7.60;58.90;;;;;;5057543;28;20048;-77
2022/12/13 12:14:47;;;;;;;7.53;3.90;;;7.80;60.00;;;;;;5036703;28;20066;-78
2022/12/13 12:17:14;;;;;;;7.40;4.50;;;7.50;57.50;;;;;;5039235;28;20029;-78
2022/12/13 12:19:43;;;;;;;10.38;4.40;;;6.80;58.80;;;;;;5055815;28;20025;-79
2022/12/13 12:22:27;;;;;;;7.78;4.10;;;6.70;59.90;;;;;;5056444;28;20043;-80
2022/12/13 12:25:28;;;;;;;7.55;4.93;;;7.20;59.80;;;;;;5039709;28;20028;-80
2022/12/13 12:28:00;;;;;;;6.35;4.72;;;7.20;59.80;;;;;;5040225;28;20048;-82
2022/12/13 12:30:41;;;;;;;5.47;4.07;;;7.30;59.50;;;;;;5041192;28;20029;-82
2022/12/13 12:33:19;;;;;;;6.78;4.72;;;7.40;59.00;;;;;;5070744;28;20009;-83
2022/12/13 12:36:08;;;;;;;6.93;4.30;;;7.80;58.40;;;;;;5049305;28;20021;-83
2022/12/13 12:38:46;;;;;;;8.30;4.55;;;8.10;58.00;;;;;;5058383;28;20017;-84
2022/12/13 12:41:46;;;;;;;13.15;4.93;;;7.80;57.50;;;;;;5369339;23;20029;-79
2022/12/13 12:50:15;;;;;;;10.10;5.43;;;7.20;59.30;;;;;;5834561;22;20037;-82
2022/12/13 13:03:23;;;;;;;7.15;4.90;;;4.70;66.10;;;;;;5077949;22;20079;-83
2022/12/13 13:05:58;;;;;;;9.55;5.15;;;4.30;67.60;;;;;;5001287;28;20030;-82
2022/12/13 13:08:33;;;;;;;9.52;4.75;;;4.70;68.20;;;;;;5017196;28;20211;-82
2022/12/13 13:11:00;;;;;;;8.25;4.95;;;5.00;68.70;;;;;;4999184;28;20030;-81
2022/12/13 13:13:44;;;;;;;8.98;4.63;;;5.70;69.30;;;;;;5016584;28;20014;-81
2022/12/13 13:16:36;;;;;;;9.93;4.97;;;5.30;69.00;;;;;;4993923;28;20023;-80
2022/12/13 13:19:13;;;;;;;11.82;5.40;;;4.30;69.00;;;;;;5006723;28;20073;-80
2022/12/13 13:21:51;;;;;;;8.75;4.53;;;4.00;70.70;;;;;;4991333;28;20036;-80